Selah, Washington
Current Conditions -  °F | °C
As of 2:56 PM on Sunday 21 Dec 2014 (Local Time) from K1YT Reporting Station
Clear Clear  
Wind Chill: 53°   Ceiling: Unl
Heat Index: 53°   Visibility: 10mi
Dew Point: 37°   Wind: 10mph
Humidity: 54%   Direction: 270°W
Pressure: 29.95"   Gusts: NA
Location:  46.65°N, 120.53°W
Report Text: K1YT 212256Z AUTO 27009KT 10SM CLR 12/03 A2995 RMK AO2 SLPNO T01170027
Loading
Personal Weather Stations






























Interactive Weather Map New forecast layout! Learn more

10-Day Weather Forecast

Advertisements
Track Severe Weather on mobile